Sks Demini — LAND7 — position and weather

sailwx.info

Track history (hours):
 
Tides and Currents Weather Stations Pressure Air Temp Water Temp Dewpoint Dewpoint Depression Visibility Wind Speed Wind Dir Waves Ship Positions

Sks Demini

Last reported at 2018-Jun-09 10:35 UTC. Time now 2018-Jun-24 03:37 UTC.
Position S 35°48' E 035°02'.
Warning: this ship's position is 14 days out of date.

Length 250 m; draft 13 m.

Type: Tanker. MMSI: 259985000.

Date/timePositionNaut miles runAvg speedWind from/ knotsBaromVisibWave heightAir tempDewpointWater temp
2018-Jun-09 10:35S 35°48' E 035°02'  
2018-Jun-06 13:58S 34°51' E 018°46'612.0
2018-Jun-06 13:30S 34°48' E 018°40'611.9
2018-Jun-06 13:00S 34°46' E 018°34'611.8
2018-Jun-06 12:30S 34°43' E 018°27'611.6
2018-Jun-06 11:56S 34°40' E 018°20'612.1
2018-Jun-06 11:28S 34°37' E 018°14'1211.3
2018-Jun-06 10:26S 34°27' E 018°10'511.8
2018-Jun-06 10:00S 34°21' E 018°09'611.8
2018-Jun-06 09:30S 34°16' E 018°08'612.8
2018-Jun-06 09:00S 34°09' E 018°07'612.2
2018-Jun-06 08:30S 34°03' E 018°08'1012.4
2018-Jun-06 07:44S 33°54' E 018°10'2 9.3
2018-Jun-06 07:28S 33°51' E 018°11'1 1.6
2018-Jun-06 06:35S 33°51' E 018°12'1 7.5
2018-Jun-06 06:30S 33°51' E 018°11'712.4
2018-Jun-06 05:57S 33°48' E 018°04'612.6
2018-Jun-06 05:28S 33°45' E 017°58'  
Track history (hours):
 
Tides and Currents Weather Stations Pressure Air Temp Water Temp Dewpoint Dewpoint Depression Visibility Wind Speed Wind Dir Waves Ship Positions

Sks Demini

Last reported at 2018-Jun-09 10:35 UTC. Time now 2018-Jun-24 03:37 UTC.
Position S 35°48' E 035°02'.
Warning: this ship's position is 14 days out of date.

Length 250 m; draft 13 m.

Type: Tanker. MMSI: 259985000.

Date/timePositionNaut miles runAvg speedWind from/ knotsBaromVisibWave heightAir tempDewpointWater temp
2018-Jun-09 10:35S 35°48' E 035°02'  
2018-Jun-06 13:58S 34°51' E 018°46'612.0
2018-Jun-06 13:30S 34°48' E 018°40'611.9
2018-Jun-06 13:00S 34°46' E 018°34'611.8
2018-Jun-06 12:30S 34°43' E 018°27'611.6
2018-Jun-06 11:56S 34°40' E 018°20'612.1
2018-Jun-06 11:28S 34°37' E 018°14'1211.3
2018-Jun-06 10:26S 34°27' E 018°10'511.8
2018-Jun-06 10:00S 34°21' E 018°09'611.8
2018-Jun-06 09:30S 34°16' E 018°08'612.8
2018-Jun-06 09:00S 34°09' E 018°07'612.2
2018-Jun-06 08:30S 34°03' E 018°08'1012.4
2018-Jun-06 07:44S 33°54' E 018°10'2 9.3
2018-Jun-06 07:28S 33°51' E 018°11'1 1.6
2018-Jun-06 06:35S 33°51' E 018°12'1 7.5
2018-Jun-06 06:30S 33°51' E 018°11'712.4
2018-Jun-06 05:57S 33°48' E 018°04'612.6
2018-Jun-06 05:28S 33°45' E 017°58'  

Dump ship's entire track history